sensor_id;sensor_type;location;lat;lon;timestamp;pressure;altitude;pressure_sealevel;temperature;humidity
30744;BME280;17486;46.738;7.622;2023-12-29T00:01:31;95546.09;;;5.74;62.51
30744;BME280;17486;46.738;7.622;2023-12-29T00:03:57;95564.63;;;5.89;62.54
30744;BME280;17486;46.738;7.622;2023-12-29T00:06:22;95564.53;;;5.92;62.55
30744;BME280;17486;46.738;7.622;2023-12-29T00:08:48;95565.41;;;5.92;61.95
30744;BME280;17486;46.738;7.622;2023-12-29T00:11:17;95567.03;;;5.96;62.48
30744;BME280;17486;46.738;7.622;2023-12-29T00:13:43;95565.28;;;5.97;62.12
30744;BME280;17486;46.738;7.622;2023-12-29T00:16:08;95561.81;;;6.00;61.88
30744;BME280;17486;46.738;7.622;2023-12-29T00:18:37;95560.88;;;6.02;62.42
30744;BME280;17486;46.738;7.622;2023-12-29T00:21:02;95560.00;;;6.03;62.55
30744;BME280;17486;46.738;7.622;2023-12-29T00:23:27;95553.19;;;6.01;62.46
30744;BME280;17486;46.738;7.622;2023-12-29T00:25:53;95559.09;;;6.04;62.05
30744;BME280;17486;46.738;7.622;2023-12-29T00:28:18;95548.00;;;6.01;61.85
30744;BME280;17486;46.738;7.622;2023-12-29T00:30:43;95555.72;;;6.02;62.12
30744;BME280;17486;46.738;7.622;2023-12-29T00:33:09;95558.22;;;6.05;61.87
30744;BME280;17486;46.738;7.622;2023-12-29T00:35:37;95550.47;;;6.05;62.00
30744;BME280;17486;46.738;7.622;2023-12-29T00:38:03;95552.25;;;6.03;61.83
30744;BME280;17486;46.738;7.622;2023-12-29T00:40:28;95554.00;;;6.01;61.74
30744;BME280;17486;46.738;7.622;2023-12-29T00:42:53;95551.47;;;6.00;62.43
30744;BME280;17486;46.738;7.622;2023-12-29T00:45:19;95537.09;;;5.89;62.33
30744;BME280;17486;46.738;7.622;2023-12-29T00:47:46;95549.06;;;5.92;61.95
30744;BME280;17486;46.738;7.622;2023-12-29T00:50:13;95548.28;;;5.90;62.19
30744;BME280;17486;46.738;7.622;2023-12-29T00:52:39;95538.88;;;5.87;62.27
30744;BME280;17486;46.738;7.622;2023-12-29T00:55:05;95531.03;;;5.90;62.49
30744;BME280;17486;46.738;7.622;2023-12-29T00:57:30;95498.81;;;5.72;62.24
30744;BME280;17486;46.738;7.622;2023-12-29T00:59:55;95519.44;;;5.74;62.46
30744;BME280;17486;46.738;7.622;2023-12-29T01:02:21;95525.47;;;5.73;62.22
30744;BME280;17486;46.738;7.622;2023-12-29T01:04:46;95528.91;;;5.73;62.52
30744;BME280;17486;46.738;7.622;2023-12-29T01:07:11;95534.88;;;5.75;62.71
30744;BME280;17486;46.738;7.622;2023-12-29T01:09:38;95536.56;;;5.76;62.24
30744;BME280;17486;46.738;7.622;2023-12-29T01:12:05;95538.19;;;5.79;62.61
30744;BME280;17486;46.738;7.622;2023-12-29T01:14:30;95540.63;;;5.85;62.98
30744;BME280;17486;46.738;7.622;2023-12-29T01:16:56;95543.16;;;5.88;62.74
30744;BME280;17486;46.738;7.622;2023-12-29T01:19:21;95540.44;;;5.93;62.66
30744;BME280;17486;46.738;7.622;2023-12-29T01:21:46;95541.25;;;5.95;62.09
30744;BME280;17486;46.738;7.622;2023-12-29T01:24:11;95548.09;;;5.96;61.65
30744;BME280;17486;46.738;7.622;2023-12-29T01:26:37;95528.91;;;5.73;61.92
30744;BME280;17486;46.738;7.622;2023-12-29T01:29:04;95558.59;;;5.90;61.74
30744;BME280;17486;46.738;7.622;2023-12-29T01:31:30;95515.22;;;5.70;62.09
30744;BME280;17486;46.738;7.622;2023-12-29T01:33:56;95551.78;;;5.87;61.93
30744;BME280;17486;46.738;7.622;2023-12-29T01:36:21;95546.69;;;5.84;62.63
30744;BME280;17486;46.738;7.622;2023-12-29T01:38:47;95523.97;;;5.64;61.96
30744;BME280;17486;46.738;7.622;2023-12-29T01:41:12;95550.28;;;5.78;61.82
30744;BME280;17486;46.738;7.622;2023-12-29T01:44:13;95548.63;;;5.76;61.99
30744;BME280;17486;46.738;7.622;2023-12-29T01:46:40;95545.31;;;5.71;62.29
30744;BME280;17486;46.738;7.622;2023-12-29T01:49:06;95546.22;;;5.68;62.44
30744;BME280;17486;46.738;7.622;2023-12-29T01:51:32;95542.91;;;5.63;62.42
30744;BME280;17486;46.738;7.622;2023-12-29T01:53:58;95533.72;;;5.53;62.94
30744;BME280;17486;46.738;7.622;2023-12-29T01:56:24;95509.94;;;5.41;62.69
30744;BME280;17486;46.738;7.622;2023-12-29T01:58:51;95568.81;;;5.60;63.02
30744;BME280;17486;46.738;7.622;2023-12-29T02:01:18;95553.34;;;5.60;63.31
30744;BME280;17486;46.738;7.622;2023-12-29T02:03:44;95559.28;;;5.63;63.32
30744;BME280;17486;46.738;7.622;2023-12-29T02:06:10;95564.38;;;5.65;63.47
30744;BME280;17486;46.738;7.622;2023-12-29T02:08:40;95556.56;;;5.68;63.06
30744;BME280;17486;46.738;7.622;2023-12-29T02:11:06;95559.13;;;5.68;63.04
30744;BME280;17486;46.738;7.622;2023-12-29T02:13:32;95560.88;;;5.68;62.78
30744;BME280;17486;46.738;7.622;2023-12-29T02:16:02;95551.41;;;5.68;63.43
30744;BME280;17486;46.738;7.622;2023-12-29T02:18:30;95545.44;;;5.66;63.43
30744;BME280;17486;46.738;7.622;2023-12-29T02:20:58;95546.22;;;5.68;63.22
30744;BME280;17486;46.738;7.622;2023-12-29T02:23:23;95551.41;;;5.68;62.74
30744;BME280;17486;46.738;7.622;2023-12-29T02:25:49;95551.53;;;5.63;63.17
30744;BME280;17486;46.738;7.622;2023-12-29T02:28:26;95566.22;;;5.60;62.66
30744;BME280;17486;46.738;7.622;2023-12-29T02:31:05;95558.50;;;5.60;62.70
30744;BME280;17486;46.738;7.622;2023-12-29T02:33:36;95557.66;;;5.59;63.38
30744;BME280;17486;46.738;7.622;2023-12-29T02:36:03;95554.94;;;5.64;63.40
30744;BME280;17486;46.738;7.622;2023-12-29T02:38:30;95541.41;;;5.56;62.82
30744;BME280;17486;46.738;7.622;2023-12-29T02:40:56;95549.75;;;5.65;62.78
30744;BME280;17486;46.738;7.622;2023-12-29T02:43:22;95499.78;;;5.35;63.44
30744;BME280;17486;46.738;7.622;2023-12-29T02:45:47;95545.41;;;5.68;62.78
30744;BME280;17486;46.738;7.622;2023-12-29T02:48:12;95549.69;;;5.67;63.09
30744;BME280;17486;46.738;7.622;2023-12-29T02:50:38;95549.63;;;5.70;63.04
30744;BME280;17486;46.738;7.622;2023-12-29T02:53:03;95548.72;;;5.73;63.84
30744;BME280;17486;46.738;7.622;2023-12-29T02:55:29;95550.38;;;5.75;63.02
30744;BME280;17486;46.738;7.622;2023-12-29T02:57:54;95529.75;;;5.74;63.25
30744;BME280;17486;46.738;7.622;2023-12-29T03:00:20;95528.91;;;5.73;62.88
30744;BME280;17486;46.738;7.622;2023-12-29T03:02:45;95538.34;;;5.74;62.95
30744;BME280;17486;46.738;7.622;2023-12-29T03:05:11;95522.97;;;5.70;62.54
30744;BME280;17486;46.738;7.622;2023-12-29T03:07:36;95528.94;;;5.72;63.02
30744;BME280;17486;46.738;7.622;2023-12-29T03:10:02;95535.03;;;5.69;63.12
30744;BME280;17486;46.738;7.622;2023-12-29T03:12:27;95508.75;;;5.55;62.89
30744;BME280;17486;46.738;7.622;2023-12-29T03:14:54;95524.75;;;5.68;62.29
30744;BME280;17486;46.738;7.622;2023-12-29T03:17:19;95514.47;;;5.66;62.47
30744;BME280;17486;46.738;7.622;2023-12-29T03:19:44;95512.72;;;5.67;62.59
30744;BME280;17486;46.738;7.622;2023-12-29T03:22:10;95511.06;;;5.64;62.33
30744;BME280;17486;46.738;7.622;2023-12-29T03:24:36;95501.72;;;5.60;62.33
30744;BME280;17486;46.738;7.622;2023-12-29T03:27:02;95494.97;;;5.56;61.92
30744;BME280;17486;46.738;7.622;2023-12-29T03:29:27;95496.00;;;5.48;62.14
30744;BME280;17486;46.738;7.622;2023-12-29T03:31:52;95506.31;;;5.48;62.15
30744;BME280;17486;46.738;7.622;2023-12-29T03:34:18;95508.94;;;5.47;62.90
30744;BME280;17486;46.738;7.622;2023-12-29T03:36:45;95519.28;;;5.45;62.33
30744;BME280;17486;46.738;7.622;2023-12-29T03:39:10;95509.06;;;5.41;62.15
30744;BME280;17486;46.738;7.622;2023-12-29T03:41:35;95495.66;;;5.28;62.30
30744;BME280;17486;46.738;7.622;2023-12-29T03:44:01;95505.94;;;5.29;62.43
30744;BME280;17486;46.738;7.622;2023-12-29T03:46:26;95523.28;;;5.23;62.39
30744;BME280;17486;46.738;7.622;2023-12-29T03:48:52;95519.91;;;5.21;63.34
30744;BME280;17486;46.738;7.622;2023-12-29T03:51:18;95521.59;;;5.22;63.49
30744;BME280;17486;46.738;7.622;2023-12-29T03:53:44;95514.66;;;5.24;63.73
30744;BME280;17486;46.738;7.622;2023-12-29T03:56:14;95501.81;;;5.22;63.80
30744;BME280;17486;46.738;7.622;2023-12-29T03:58:39;95492.31;;;5.24;63.47
30744;BME280;17486;46.738;7.622;2023-12-29T04:01:10;95500.00;;;5.26;63.57
30744;BME280;17486;46.738;7.622;2023-12-29T04:03:36;95496.50;;;5.28;63.84
30744;BME280;17486;46.738;7.622;2023-12-29T04:06:02;95499.09;;;5.28;63.32
30744;BME280;17486;46.738;7.622;2023-12-29T04:08:27;95511.00;;;5.32;62.88
30744;BME280;17486;46.738;7.622;2023-12-29T04:10:53;95496.41;;;5.31;63.08
30744;BME280;17486;46.738;7.622;2023-12-29T04:13:18;95495.59;;;5.31;63.24
30744;BME280;17486;46.738;7.622;2023-12-29T04:15:43;95493.03;;;5.29;63.64
30744;BME280;17486;46.738;7.622;2023-12-29T04:18:09;95482.78;;;5.26;63.53
30744;BME280;17486;46.738;7.622;2023-12-29T04:20:34;95485.44;;;5.23;63.15
30744;BME280;17486;46.738;7.622;2023-12-29T04:23:00;95489.78;;;5.23;63.75
30744;BME280;17486;46.738;7.622;2023-12-29T04:25:25;95494.09;;;5.21;63.98
30744;BME280;17486;46.738;7.622;2023-12-29T04:27:50;95498.34;;;5.23;63.53
30744;BME280;17486;46.738;7.622;2023-12-29T04:30:16;95488.03;;;5.23;63.71
30744;BME280;17486;46.738;7.622;2023-12-29T04:32:41;95475.56;;;5.06;63.90
30744;BME280;17486;46.738;7.622;2023-12-29T04:35:07;95511.28;;;5.22;63.86
30744;BME280;17486;46.738;7.622;2023-12-29T04:37:32;95506.25;;;5.15;63.74
30744;BME280;17486;46.738;7.622;2023-12-29T04:39:58;95518.19;;;5.20;63.65
30744;BME280;17486;46.738;7.622;2023-12-29T04:42:23;95492.59;;;5.12;63.68
30744;BME280;17486;46.738;7.622;2023-12-29T04:44:49;95521.59;;;5.22;63.23
30744;BME280;17486;46.738;7.622;2023-12-29T04:47:14;95516.44;;;5.22;63.37
30744;BME280;17486;46.738;7.622;2023-12-29T04:49:40;95523.28;;;5.23;63.87
30744;BME280;17486;46.738;7.622;2023-12-29T04:52:05;95526.75;;;5.22;63.34
30744;BME280;17486;46.738;7.622;2023-12-29T04:54:31;95536.19;;;5.23;62.85
30744;BME280;17486;46.738;7.622;2023-12-29T04:56:56;95530.16;;;5.22;62.96
30744;BME280;17486;46.738;7.622;2023-12-29T04:59:21;95528.47;;;5.23;63.14
30744;BME280;17486;46.738;7.622;2023-12-29T05:01:47;95534.44;;;5.23;63.20
30744;BME280;17486;46.738;7.622;2023-12-29T05:04:12;95528.47;;;5.23;63.23
30744;BME280;17486;46.738;7.622;2023-12-29T05:06:40;95531.91;;;5.22;62.42
30744;BME280;17486;46.738;7.622;2023-12-29T05:09:05;95526.81;;;5.19;62.41
30744;BME280;17486;46.738;7.622;2023-12-29T05:11:30;95531.91;;;5.22;63.06
30744;BME280;17486;46.738;7.622;2023-12-29T05:13:56;95530.16;;;5.22;62.75
30744;BME280;17486;46.738;7.622;2023-12-29T05:16:21;95537.84;;;5.24;62.61
30744;BME280;17486;46.738;7.622;2023-12-29T05:18:46;95528.59;;;5.17;63.04
30744;BME280;17486;46.738;7.622;2023-12-29T05:21:18;95541.31;;;5.24;62.69
30744;BME280;17486;46.738;7.622;2023-12-29T05:23:44;95549.84;;;5.26;62.83
30744;BME280;17486;46.738;7.622;2023-12-29T05:26:14;95540.38;;;5.27;63.21
30744;BME280;17486;46.738;7.622;2023-12-29T05:28:39;95533.63;;;5.23;63.32
30744;BME280;17486;46.738;7.622;2023-12-29T05:31:05;95544.63;;;5.29;62.80
30744;BME280;17486;46.738;7.622;2023-12-29T05:33:31;95546.34;;;5.29;62.96
30744;BME280;17486;46.738;7.622;2023-12-29T05:35:56;95527.63;;;5.21;62.77
30744;BME280;17486;46.738;7.622;2023-12-29T05:38:22;95548.84;;;5.32;63.03
30744;BME280;17486;46.738;7.622;2023-12-29T05:40:47;95552.28;;;5.32;63.01
30744;BME280;17486;46.738;7.622;2023-12-29T05:43:14;95545.38;;;5.33;62.99
30744;BME280;17486;46.738;7.622;2023-12-29T05:45:40;95542.91;;;5.28;63.74
30744;BME280;17486;46.738;7.622;2023-12-29T05:48:05;95532.69;;;5.25;63.53
30744;BME280;17486;46.738;7.622;2023-12-29T05:50:31;95518.28;;;5.17;63.57
30744;BME280;17486;46.738;7.622;2023-12-29T05:52:56;95539.50;;;5.28;62.91
30744;BME280;17486;46.738;7.622;2023-12-29T05:55:22;95533.44;;;5.29;63.37
30744;BME280;17486;46.738;7.622;2023-12-29T05:57:47;95519.84;;;5.22;63.10
30744;BME280;17486;46.738;7.622;2023-12-29T06:00:13;95524.91;;;5.27;63.93
30744;BME280;17486;46.738;7.622;2023-12-29T06:02:42;95525.53;;;5.37;63.90
30744;BME280;17486;46.738;7.622;2023-12-29T06:05:11;95530.81;;;5.32;63.76
30744;BME280;17486;46.738;7.622;2023-12-29T06:07:37;95529.66;;;5.44;64.33
30744;BME280;17486;46.738;7.622;2023-12-29T06:10:03;95535.56;;;5.47;64.54
30744;BME280;17486;46.738;7.622;2023-12-29T06:12:28;95527.72;;;5.52;63.81
30744;BME280;17486;46.738;7.622;2023-12-29T06:14:54;95546.56;;;5.56;64.54
30744;BME280;17486;46.738;7.622;2023-12-29T06:17:19;95540.47;;;5.58;64.70
30744;BME280;17486;46.738;7.622;2023-12-29T06:19:44;95543.00;;;5.60;64.69
30744;BME280;17486;46.738;7.622;2023-12-29T06:22:10;95540.28;;;5.66;65.10
30744;BME280;17486;46.738;7.622;2023-12-29T06:24:42;95529.34;;;5.56;65.53
30744;BME280;17486;46.738;7.622;2023-12-29T06:27:08;95553.06;;;5.71;65.69
30744;BME280;17486;46.738;7.622;2023-12-29T06:29:34;95558.09;;;5.75;65.29
30744;BME280;17486;46.738;7.622;2023-12-29T06:32:00;95564.94;;;5.76;65.31
30744;BME280;17486;46.738;7.622;2023-12-29T06:34:25;95559.78;;;5.76;65.48
30744;BME280;17486;46.738;7.622;2023-12-29T06:36:51;95555.47;;;5.77;65.99
30744;BME280;17486;46.738;7.622;2023-12-29T06:39:16;95549.44;;;5.76;65.93
30744;BME280;17486;46.738;7.622;2023-12-29T06:41:42;95527.38;;;5.66;65.82
30744;BME280;17486;46.738;7.622;2023-12-29T06:44:07;95527.63;;;5.57;66.00
30744;BME280;17486;46.738;7.622;2023-12-29T06:46:33;95572.66;;;5.78;65.76
30744;BME280;17486;46.738;7.622;2023-12-29T06:48:58;95565.84;;;5.75;65.30
30744;BME280;17486;46.738;7.622;2023-12-29T06:51:23;95563.31;;;5.74;65.55
30744;BME280;17486;46.738;7.622;2023-12-29T06:53:49;95562.50;;;5.72;65.41
30744;BME280;17486;46.738;7.622;2023-12-29T06:56:15;95562.69;;;5.64;64.55
30744;BME280;17486;46.738;7.622;2023-12-29T06:58:41;95578.06;;;5.69;64.87
30744;BME280;17486;46.738;7.622;2023-12-29T07:01:06;95561.81;;;5.65;64.83
30744;BME280;17486;46.738;7.622;2023-12-29T07:03:32;95573.88;;;5.63;65.46
30744;BME280;17486;46.738;7.622;2023-12-29T07:06:00;95555.19;;;5.55;65.45
30744;BME280;17486;46.738;7.622;2023-12-29T07:08:26;95558.34;;;5.64;65.64
30744;BME280;17486;46.738;7.622;2023-12-29T07:10:52;95563.56;;;5.63;65.56
30744;BME280;17486;46.738;7.622;2023-12-29T07:13:17;95571.19;;;5.68;64.80
30744;BME280;17486;46.738;7.622;2023-12-29T07:15:43;95555.06;;;5.59;64.73
30744;BME280;17486;46.738;7.622;2023-12-29T07:18:08;95577.09;;;5.73;64.65
30744;BME280;17486;46.738;7.622;2023-12-29T07:20:33;95578.75;;;5.75;64.83
30744;BME280;17486;46.738;7.622;2023-12-29T07:23:00;95548.97;;;5.62;64.49
30744;BME280;17486;46.738;7.622;2023-12-29T07:25:26;95558.09;;;5.75;64.92
30744;BME280;17486;46.738;7.622;2023-12-29T07:27:51;95557.13;;;5.79;64.93
30744;BME280;17486;46.738;7.622;2023-12-29T07:30:18;95548.81;;;5.68;65.20
30744;BME280;17486;46.738;7.622;2023-12-29T07:32:43;95563.97;;;5.82;64.99
30744;BME280;17486;46.738;7.622;2023-12-29T07:35:09;95577.66;;;5.84;64.46
30744;BME280;17486;46.738;7.622;2023-12-29T07:37:34;95589.63;;;5.88;64.65
30744;BME280;17486;46.738;7.622;2023-12-29T07:39:59;95592.06;;;5.93;64.16
30744;BME280;17486;46.738;7.622;2023-12-29T07:42:25;95591.13;;;5.95;64.14
30744;BME280;17486;46.738;7.622;2023-12-29T07:44:50;95589.47;;;5.93;64.41
30744;BME280;17486;46.738;7.622;2023-12-29T07:47:16;95584.22;;;5.96;63.72
30744;BME280;17486;46.738;7.622;2023-12-29T07:49:42;95589.31;;;6.01;63.62
30744;BME280;17486;46.738;7.622;2023-12-29T07:52:07;95583.19;;;6.05;64.36
30744;BME280;17486;46.738;7.622;2023-12-29T07:54:33;95573.81;;;6.01;63.45
30744;BME280;17486;46.738;7.622;2023-12-29T07:56:58;95582.09;;;6.13;63.20
30744;BME280;17486;46.738;7.622;2023-12-29T07:59:24;95551.59;;;5.95;62.85
30744;BME280;17486;46.738;7.622;2023-12-29T08:01:50;95581.03;;;6.21;63.54
30744;BME280;17486;46.738;7.622;2023-12-29T08:04:15;95581.84;;;6.23;63.23
30744;BME280;17486;46.738;7.622;2023-12-29T08:06:41;95594.63;;;6.27;62.74
30744;BME280;17486;46.738;7.622;2023-12-29T08:09:06;95586.84;;;6.29;62.57
30744;BME280;17486;46.738;7.622;2023-12-29T08:11:33;95596.22;;;6.33;62.17
30744;BME280;17486;46.738;7.622;2023-12-29T08:13:58;95580.09;;;6.23;62.49
30744;BME280;17486;46.738;7.622;2023-12-29T08:16:24;95600.41;;;6.37;61.93
30744;BME280;17486;46.738;7.622;2023-12-29T08:18:49;95608.88;;;6.42;62.09
30744;BME280;17486;46.738;7.622;2023-12-29T08:21:21;95615.69;;;6.45;61.97
30744;BME280;17486;46.738;7.622;2023-12-29T08:23:47;95583.34;;;6.32;62.21
30744;BME280;17486;46.738;7.622;2023-12-29T08:26:13;95591.56;;;6.44;61.89
30744;BME280;17486;46.738;7.622;2023-12-29T08:28:39;95587.34;;;6.42;62.58
30744;BME280;17486;46.738;7.622;2023-12-29T08:31:04;95593.41;;;6.41;62.35
30744;BME280;17486;46.738;7.622;2023-12-29T08:33:30;95591.47;;;6.49;61.76
30744;BME280;17486;46.738;7.622;2023-12-29T08:35:56;95580.34;;;6.45;61.96
30744;BME280;17486;46.738;7.622;2023-12-29T08:38:28;95579.38;;;6.50;62.30
30744;BME280;17486;46.738;7.622;2023-12-29T08:40:54;95581.91;;;6.53;62.46
30744;BME280;17486;46.738;7.622;2023-12-29T08:43:19;95583.50;;;6.57;63.12
30744;BME280;17486;46.738;7.622;2023-12-29T08:45:47;95563.81;;;6.53;63.52
30744;BME280;17486;46.738;7.622;2023-12-29T08:48:13;95572.00;;;6.67;63.71
30744;BME280;17486;46.738;7.622;2023-12-29T08:50:38;95572.72;;;6.72;63.89
30744;BME280;17486;46.738;7.622;2023-12-29T08:53:04;95583.84;;;6.74;63.36
30744;BME280;17486;46.738;7.622;2023-12-29T08:55:29;95576.91;;;6.76;63.42
30744;BME280;17486;46.738;7.622;2023-12-29T08:57:56;95574.31;;;6.76;63.03
30744;BME280;17486;46.738;7.622;2023-12-29T09:00:22;95576.16;;;6.73;63.55
30744;BME280;17486;46.738;7.622;2023-12-29T09:02:47;95556.50;;;6.67;63.81
30744;BME280;17486;46.738;7.622;2023-12-29T09:05:12;95572.56;;;6.77;64.75
30744;BME280;17486;46.738;7.622;2023-12-29T09:07:38;95578.38;;;6.85;65.00
30744;BME280;17486;46.738;7.622;2023-12-29T09:10:04;95570.56;;;6.87;64.65
30744;BME280;17486;46.738;7.622;2023-12-29T09:12:33;95577.16;;;6.97;64.91
30744;BME280;17486;46.738;7.622;2023-12-29T09:14:59;95570.31;;;6.96;64.66
30744;BME280;17486;46.738;7.622;2023-12-29T09:17:24;95572.31;;;7.14;64.59
30744;BME280;17486;46.738;7.622;2023-12-29T09:19:49;95571.84;;;7.30;63.87
30744;BME280;17486;46.738;7.622;2023-12-29T09:22:15;95569.91;;;7.37;63.06
30744;BME280;17486;46.738;7.622;2023-12-29T09:24:41;95580.06;;;7.43;62.80
30744;BME280;17486;46.738;7.622;2023-12-29T09:27:07;95579.72;;;7.54;62.50
30744;BME280;17486;46.738;7.622;2023-12-29T09:29:32;95595.00;;;7.61;61.97
30744;BME280;17486;46.738;7.622;2023-12-29T09:31:58;95587.69;;;7.74;61.68
30744;BME280;17486;46.738;7.622;2023-12-29T09:34:23;95587.38;;;7.84;60.69
30744;BME280;17486;46.738;7.622;2023-12-29T09:36:48;95587.16;;;7.90;60.59
30744;BME280;17486;46.738;7.622;2023-12-29T09:39:14;95582.66;;;7.95;60.23
30744;BME280;17486;46.738;7.622;2023-12-29T09:41:42;95579.13;;;7.97;60.29
30744;BME280;17486;46.738;7.622;2023-12-29T09:44:13;95568.56;;;8.04;59.95
30744;BME280;17486;46.738;7.622;2023-12-29T09:46:41;95585.44;;;8.16;59.58
30744;BME280;17486;46.738;7.622;2023-12-29T09:49:08;95580.13;;;8.19;59.47
30744;BME280;17486;46.738;7.622;2023-12-29T09:51:35;95601.41;;;8.28;59.27
30744;BME280;17486;46.738;7.622;2023-12-29T09:54:01;95560.66;;;8.08;58.67
30744;BME280;17486;46.738;7.622;2023-12-29T09:56:28;95556.72;;;8.22;58.75
30744;BME280;17486;46.738;7.622;2023-12-29T09:58:54;95577.13;;;8.31;60.60
30744;BME280;17486;46.738;7.622;2023-12-29T10:01:21;95566.56;;;8.37;60.30
30744;BME280;17486;46.738;7.622;2023-12-29T10:03:47;95576.28;;;8.56;60.21
30744;BME280;17486;46.738;7.622;2023-12-29T10:06:18;95573.47;;;8.62;58.82
30744;BME280;17486;46.738;7.622;2023-12-29T10:08:45;95581.91;;;8.67;59.16
30744;BME280;17486;46.738;7.622;2023-12-29T10:11:11;95578.31;;;8.71;58.94
30744;BME280;17486;46.738;7.622;2023-12-29T10:13:39;95574.59;;;8.78;58.94
30744;BME280;17486;46.738;7.622;2023-12-29T10:18:37;95571.47;;;8.92;59.30
30744;BME280;17486;46.738;7.622;2023-12-29T10:21:27;95564.25;;;9.01;60.32
30744;BME280;17486;46.738;7.622;2023-12-29T10:24:03;95543.50;;;9.01;62.56
30744;BME280;17486;46.738;7.622;2023-12-29T10:26:31;95560.41;;;9.33;61.98
30744;BME280;17486;46.738;7.622;2023-12-29T10:28:58;95560.75;;;9.46;60.77
30744;BME280;17486;46.738;7.622;2023-12-29T10:31:24;95552.53;;;9.57;60.10
30744;BME280;17486;46.738;7.622;2023-12-29T10:33:51;95553.06;;;9.65;59.76
30744;BME280;17486;46.738;7.622;2023-12-29T10:36:17;95548.50;;;9.70;59.29
30744;BME280;17486;46.738;7.622;2023-12-29T10:38:42;95536.31;;;9.72;58.78
30744;BME280;17486;46.738;7.622;2023-12-29T10:41:18;95542.19;;;9.77;58.45
30744;BME280;17486;46.738;7.622;2023-12-29T10:43:45;95509.31;;;9.76;60.87
30744;BME280;17486;46.738;7.622;2023-12-29T10:46:19;95517.63;;;10.05;62.01
30744;BME280;17486;46.738;7.622;2023-12-29T10:48:46;95531.56;;;10.23;60.56
30744;BME280;17486;46.738;7.622;2023-12-29T10:51:11;95525.97;;;10.33;58.16
30744;BME280;17486;46.738;7.622;2023-12-29T10:53:37;95521.75;;;10.30;55.69
30744;BME280;17486;46.738;7.622;2023-12-29T10:56:02;95521.03;;;10.26;56.56
30744;BME280;17486;46.738;7.622;2023-12-29T10:58:29;95506.66;;;10.18;56.25
30744;BME280;17486;46.738;7.622;2023-12-29T11:00:59;95525.50;;;10.23;55.80
30744;BME280;17486;46.738;7.622;2023-12-29T11:03:27;95520.19;;;10.26;55.86
30744;BME280;17486;46.738;7.622;2023-12-29T11:05:59;95513.63;;;10.17;54.71
30744;BME280;17486;46.738;7.622;2023-12-29T11:08:27;95497.97;;;9.98;53.59
30744;BME280;17486;46.738;7.622;2023-12-29T11:10:53;95504.13;;;9.97;54.59
30744;BME280;17486;46.738;7.622;2023-12-29T11:13:20;95502.41;;;9.96;55.29
30744;BME280;17486;46.738;7.622;2023-12-29T11:15:45;95473.34;;;9.88;55.34
30744;BME280;17486;46.738;7.622;2023-12-29T11:18:13;95497.88;;;10.01;54.79
30744;BME280;17486;46.738;7.622;2023-12-29T11:20:39;95504.41;;;10.10;55.74
30744;BME280;17486;46.738;7.622;2023-12-29T11:23:06;95478.81;;;10.01;55.46
30744;BME280;17486;46.738;7.622;2023-12-29T11:25:33;95498.91;;;9.97;55.32
30744;BME280;17486;46.738;7.622;2023-12-29T11:27:59;95487.94;;;9.90;55.17
30744;BME280;17486;46.738;7.622;2023-12-29T11:30:26;95493.84;;;9.94;54.94
30744;BME280;17486;46.738;7.622;2023-12-29T11:32:57;95486.03;;;9.94;54.45
30744;BME280;17486;46.738;7.622;2023-12-29T11:36:08;95475.88;;;9.89;55.20
30744;BME280;17486;46.738;7.622;2023-12-29T11:38:48;95482.16;;;9.84;55.19
30744;BME280;17486;46.738;7.622;2023-12-29T11:41:42;95479.44;;;9.87;55.76
30744;BME280;17486;46.738;7.622;2023-12-29T11:44:11;95469.56;;;9.95;55.30
30744;BME280;17486;46.738;7.622;2023-12-29T11:46:42;95469.56;;;9.95;55.26
30744;BME280;17486;46.738;7.622;2023-12-29T11:49:08;95445.09;;;9.80;55.04
30744;BME280;17486;46.738;7.622;2023-12-29T11:51:52;95462.31;;;10.02;54.43
30744;BME280;17486;46.738;7.622;2023-12-29T11:54:24;95456.66;;;10.12;54.92
30744;BME280;17486;46.738;7.622;2023-12-29T11:56:50;95455.09;;;10.08;53.77
30744;BME280;17486;46.738;7.622;2023-12-29T12:01:43;95460.94;;;10.13;53.56
30744;BME280;17486;46.738;7.622;2023-12-29T12:04:41;95460.53;;;10.23;53.14
30744;BME280;17486;46.738;7.622;2023-12-29T12:09:36;95454.28;;;10.27;54.16
30744;BME280;17486;46.738;7.622;2023-12-29T12:12:02;95457.47;;;10.34;54.36
30744;BME280;17486;46.738;7.622;2023-12-29T12:17:26;95444.13;;;10.41;53.65
30744;BME280;17486;46.738;7.622;2023-12-29T12:19:56;95419.06;;;10.40;52.84
30744;BME280;17486;46.738;7.622;2023-12-29T12:22:24;95419.19;;;10.37;53.16
30744;BME280;17486;46.738;7.622;2023-12-29T12:24:55;95425.09;;;10.41;53.04
30744;BME280;17486;46.738;7.622;2023-12-29T12:27:21;95412.00;;;10.42;53.32
30744;BME280;17486;46.738;7.622;2023-12-29T12:29:52;95418.91;;;10.43;53.24
30744;BME280;17486;46.738;7.622;2023-12-29T12:32:20;95403.97;;;10.28;53.64
30744;BME280;17486;46.738;7.622;2023-12-29T12:34:47;95405.13;;;10.41;53.36
30744;BME280;17486;46.738;7.622;2023-12-29T12:37:12;95413.63;;;10.45;53.36
30744;BME280;17486;46.738;7.622;2023-12-29T12:39:39;95405.63;;;10.50;52.61
30744;BME280;17486;46.738;7.622;2023-12-29T12:42:05;95404.56;;;10.54;51.70
30744;BME280;17486;46.738;7.622;2023-12-29T12:44:31;95397.94;;;10.66;51.78
30744;BME280;17486;46.738;7.622;2023-12-29T12:46:59;95389.16;;;10.68;51.91
30744;BME280;17486;46.738;7.622;2023-12-29T12:49:29;95391.16;;;10.81;51.31
30744;BME280;17486;46.738;7.622;2023-12-29T12:51:54;95391.50;;;10.73;50.84
30744;BME280;17486;46.738;7.622;2023-12-29T12:54:20;95385.66;;;10.87;55.40
30744;BME280;17486;46.738;7.622;2023-12-29T12:56:46;95384.34;;;10.78;52.00
30744;BME280;17486;46.738;7.622;2023-12-29T12:59:13;95367.91;;;10.77;51.91
30744;BME280;17486;46.738;7.622;2023-12-29T13:01:39;95350.34;;;10.64;51.79
30744;BME280;17486;46.738;7.622;2023-12-29T13:04:06;95370.03;;;10.69;51.30
30744;BME280;17486;46.738;7.622;2023-12-29T13:06:33;95380.28;;;10.72;51.44
30744;BME280;17486;46.738;7.622;2023-12-29T13:09:00;95374.31;;;10.70;50.46
30744;BME280;17486;46.738;7.622;2023-12-29T13:11:27;95382.88;;;10.72;50.79
30744;BME280;17486;46.738;7.622;2023-12-29T13:13:53;95366.44;;;10.72;51.07
30744;BME280;17486;46.738;7.622;2023-12-29T13:16:31;95362.94;;;10.90;49.93
30744;BME280;17486;46.738;7.622;2023-12-29T13:19:05;95366.41;;;11.08;50.52